createdAt,value
2019-01-16T00:01:41.601Z,19.70
2019-01-16T00:04:47.804Z,18.32
2019-01-16T00:07:34.797Z,20.65
2019-01-16T00:10:23.255Z,20.30
2019-01-16T00:12:58.445Z,17.98
2019-01-16T00:15:45.176Z,19.05
2019-01-16T00:18:31.958Z,18.02
2019-01-16T00:21:15.323Z,18.07
2019-01-16T00:24:01.393Z,17.00
2019-01-16T00:26:55.735Z,17.10
2019-01-16T00:29:42.525Z,15.20
2019-01-16T00:32:33.322Z,16.45
2019-01-16T00:35:19.965Z,16.85
2019-01-16T00:38:08.055Z,15.60
2019-01-16T00:41:14.275Z,16.07
2019-01-16T00:44:02.320Z,15.80
2019-01-16T00:47:09.535Z,16.73
2019-01-16T00:49:57.506Z,17.23
2019-01-16T00:52:48.308Z,16.87
2019-01-16T00:55:34.902Z,16.50
2019-01-16T00:58:28.324Z,18.12
2019-01-16T01:01:11.801Z,19.32
2019-01-16T01:03:58.665Z,17.15
2019-01-16T01:06:45.265Z,19.32
2019-01-16T01:09:27.435Z,18.82
2019-01-16T01:12:21.992Z,19.07
2019-01-16T01:15:15.764Z,19.77
2019-01-16T01:18:06.957Z,21.10
2019-01-16T01:21:00.984Z,18.37
2019-01-16T01:23:47.601Z,17.85
2019-01-16T01:26:38.670Z,20.50
2019-01-16T01:29:35.879Z,19.60
2019-01-16T01:32:36.293Z,20.45
2019-01-16T01:35:36.539Z,19.65
2019-01-16T01:38:30.878Z,17.55
2019-01-16T01:41:28.200Z,20.65
2019-01-16T01:44:12.856Z,20.32
2019-01-16T01:47:13.004Z,17.45
2019-01-16T01:50:19.414Z,18.37
2019-01-16T01:53:10.246Z,19.60
2019-01-16T01:55:58.249Z,15.98
2019-01-16T01:59:01.728Z,17.90
2019-01-16T02:01:48.307Z,17.27
2019-01-16T02:04:45.179Z,16.23
2019-01-16T02:07:31.983Z,17.25
2019-01-16T02:10:26.749Z,16.00
2019-01-16T02:13:20.872Z,18.77
2019-01-16T02:15:58.348Z,17.10
2019-01-16T02:19:01.820Z,14.65
2019-01-16T02:21:49.855Z,15.20
2019-01-16T02:24:32.119Z,15.15
2019-01-16T02:27:20.857Z,14.95
2019-01-16T02:30:07.343Z,14.28
2019-01-16T02:32:58.473Z,14.55
2019-01-16T02:35:44.838Z,15.20
2019-01-16T02:38:42.136Z,15.25
2019-01-16T02:41:20.711Z,17.23
2019-01-16T02:44:11.515Z,17.23
2019-01-16T02:46:58.169Z,16.07
2019-01-16T02:49:44.803Z,16.10
2019-01-16T02:52:31.710Z,15.38
2019-01-16T02:55:31.604Z,14.90
2019-01-16T02:58:25.168Z,17.87
2019-01-16T03:01:15.947Z,17.32
2019-01-16T03:04:03.922Z,14.70
2019-01-16T03:06:50.718Z,16.80
2019-01-16T03:09:38.765Z,15.75
2019-01-16T03:12:45.131Z,16.20
2019-01-16T03:15:33.156Z,16.40
2019-01-16T03:18:24.063Z,17.42
2019-01-16T03:21:10.892Z,19.20
2019-01-16T03:23:58.037Z,15.40
2019-01-16T03:26:49.260Z,14.18
2019-01-16T03:29:52.698Z,17.50
2019-01-16T03:32:58.824Z,16.67
2019-01-16T03:35:56.755Z,15.83
2019-01-16T03:38:43.569Z,17.98
2019-01-16T03:41:28.490Z,15.98
2019-01-16T03:44:19.347Z,17.37
2019-01-16T03:46:56.545Z,16.60
2019-01-16T03:49:43.435Z,14.50
2019-01-16T03:52:34.503Z,15.32
2019-01-16T03:55:31.596Z,18.32
2019-01-16T03:58:22.428Z,16.85
2019-01-16T04:01:09.217Z,16.27
2019-01-16T04:04:03.114Z,17.30
2019-01-16T04:06:48.879Z,16.27
2019-01-16T04:09:39.905Z,16.77
2019-01-16T04:12:32.349Z,17.92
2019-01-16T04:15:26.203Z,17.92
2019-01-16T04:18:14.177Z,18.23
2019-01-16T04:21:05.214Z,16.10
2019-01-16T04:23:42.742Z,16.35
2019-01-16T04:26:46.153Z,19.00
2019-01-16T04:29:32.751Z,16.57
2019-01-16T04:32:38.875Z,18.52
2019-01-16T04:35:35.880Z,18.17
2019-01-16T04:38:30.259Z,19.65
2019-01-16T04:41:18.379Z,16.37
2019-01-16T04:44:06.455Z,16.60
2019-01-16T04:47:00.645Z,17.48
2019-01-16T04:49:51.689Z,16.60
2019-01-16T04:52:46.005Z,16.50
2019-01-16T04:55:34.013Z,20.83
2019-01-16T04:58:24.873Z,15.30
2019-01-16T05:01:05.249Z,15.35
2019-01-16T05:04:11.454Z,17.30
2019-01-16T05:07:02.373Z,15.63
2019-01-16T05:09:42.293Z,15.68
2019-01-16T05:12:48.709Z,15.83
2019-01-16T05:15:37.521Z,14.93
2019-01-16T05:18:32.967Z,15.78
2019-01-16T05:21:24.420Z,17.32
2019-01-16T05:24:22.432Z,15.18
2019-01-16T05:27:10.902Z,15.45
2019-01-16T05:30:16.074Z,18.27
2019-01-16T05:33:04.253Z,19.37
2019-01-16T05:35:53.119Z,16.17
2019-01-16T05:38:43.896Z,14.93
2019-01-16T05:41:36.847Z,16.65
2019-01-16T05:44:33.914Z,15.18
2019-01-16T05:47:22.017Z,15.70
2019-01-16T05:50:22.409Z,14.38
2019-01-16T05:53:13.419Z,13.85
2019-01-16T05:56:19.524Z,13.45
2019-01-16T05:59:16.754Z,12.95
2019-01-16T06:02:14.740Z,13.83
2019-01-16T06:05:11.735Z,12.53
2019-01-16T06:08:02.839Z,11.50
2019-01-16T06:10:51.778Z,12.35
2019-01-16T06:13:49.071Z,12.03
2019-01-16T06:16:45.553Z,10.75
2019-01-16T06:19:32.018Z,14.38
2019-01-16T06:22:18.624Z,12.75
2019-01-16T06:25:10.015Z,14.83
2019-01-16T06:28:10.653Z,14.75
2019-01-16T06:31:04.778Z,12.93
2019-01-16T06:34:00.572Z,13.10
2019-01-16T06:37:08.180Z,17.12
2019-01-16T06:39:56.211Z,12.70
2019-01-16T06:42:44.359Z,16.12
2019-01-16T06:45:32.419Z,12.33
2019-01-16T06:48:32.877Z,14.13
2019-01-16T06:51:29.456Z,10.88
2019-01-16T06:54:28.212Z,13.48
2019-01-16T06:57:13.104Z,11.35
2019-01-16T07:00:16.273Z,12.63
2019-01-16T07:03:10.134Z,11.03
2019-01-16T07:05:52.426Z,11.78
2019-01-16T07:08:35.792Z,8.33
2019-01-16T07:11:23.821Z,12.53
2019-01-16T07:14:10.769Z,12.58
2019-01-16T07:17:07.822Z,12.65
2019-01-16T07:20:09.408Z,12.70
2019-01-16T07:22:51.507Z,10.43
2019-01-16T07:25:38.152Z,11.33
2019-01-16T07:28:33.905Z,10.60
2019-01-16T07:31:20.565Z,12.73
2019-01-16T07:34:14.550Z,10.58
2019-01-16T07:37:05.815Z,11.28
2019-01-16T07:39:45.216Z,9.83
2019-01-16T07:42:32.095Z,12.23
2019-01-16T07:45:18.053Z,11.80
2019-01-16T07:48:05.862Z,9.53
2019-01-16T07:50:52.882Z,10.75
2019-01-16T07:53:53.349Z,9.60
2019-01-16T07:56:53.411Z,10.27
2019-01-16T07:59:40.329Z,9.88
2019-01-16T08:02:25.135Z,10.50
2019-01-16T08:05:12.105Z,8.85
2019-01-16T08:08:06.519Z,10.48
2019-01-16T08:11:06.539Z,9.35
2019-01-16T08:13:46.607Z,8.08
2019-01-16T08:16:37.724Z,8.90
2019-01-16T08:19:28.525Z,7.40
2019-01-16T08:22:25.873Z,7.05
2019-01-16T08:25:02.023Z,7.30
2019-01-16T08:27:56.203Z,9.50
2019-01-16T08:30:43.068Z,9.47
2019-01-16T08:33:46.523Z,8.65
2019-01-16T08:36:27.930Z,7.67
2019-01-16T08:39:34.705Z,8.00
2019-01-16T08:42:21.669Z,8.30
2019-01-16T08:45:12.451Z,9.60
2019-01-16T08:47:59.329Z,7.75
2019-01-16T08:50:46.124Z,9.53
2019-01-16T08:53:33.126Z,9.10
2019-01-16T08:56:11.871Z,6.50
2019-01-16T08:58:58.823Z,9.10
2019-01-16T09:01:56.543Z,8.95
2019-01-16T09:04:56.611Z,12.75
2019-01-16T09:31:37.118Z,13.68
2019-01-16T09:34:25.174Z,15.90
2019-01-16T09:37:13.219Z,15.53
2019-01-16T09:39:54.658Z,14.68
2019-01-16T09:42:41.296Z,15.08
2019-01-16T09:45:32.417Z,14.80
2019-01-16T09:48:32.693Z,20.30
2019-01-16T09:51:30.155Z,17.15
2019-01-16T09:54:26.781Z,16.97
2019-01-16T09:57:14.172Z,18.32
2019-01-16T10:00:05.301Z,20.43
2019-01-16T10:03:11.792Z,20.30
2019-01-16T10:05:56.935Z,20.02
2019-01-16T10:09:00.291Z,24.87
2019-01-16T10:11:57.256Z,25.08
2019-01-16T10:14:51.260Z,24.18
2019-01-16T10:17:38.039Z,25.88
2019-01-16T10:20:21.925Z,21.86
2019-01-16T10:23:10.143Z,24.95
2019-01-16T10:26:04.413Z,24.55
2019-01-16T10:28:48.710Z,24.75
2019-01-16T10:31:42.643Z,27.77
2019-01-16T10:34:36.561Z,22.13
2019-01-16T10:37:23.158Z,21.85
2019-01-16T10:40:17.250Z,20.77
2019-01-16T10:43:07.856Z,20.37
2019-01-16T10:46:10.871Z,19.50
2019-01-16T10:48:53.841Z,23.07
2019-01-16T10:52:00.274Z,20.15
2019-01-16T10:54:51.127Z,18.35
2019-01-16T10:57:49.742Z,23.47
2019-01-16T11:00:31.306Z,20.33
2019-01-16T11:03:25.425Z,17.80
2019-01-16T11:06:11.959Z,19.35
2019-01-16T11:09:09.081Z,21.40
2019-01-16T11:12:03.204Z,15.50
2019-01-16T11:14:46.139Z,21.10
2019-01-16T11:17:34.162Z,18.52
2019-01-16T11:20:15.145Z,18.60
2019-01-16T11:23:09.183Z,18.60
2019-01-16T11:26:12.275Z,18.48
2019-01-16T11:29:05.869Z,14.87
2019-01-16T11:31:53.890Z,17.52
2019-01-16T11:34:40.391Z,15.45
2019-01-16T11:37:31.510Z,14.13
2019-01-16T11:40:19.632Z,16.82
2019-01-16T11:43:13.913Z,17.87
2019-01-16T11:46:07.799Z,19.52
2019-01-16T11:49:05.897Z,18.55
2019-01-16T11:52:05.954Z,16.25
2019-01-16T11:54:52.660Z,16.87
2019-01-16T11:57:34.923Z,16.10
2019-01-16T12:00:29.071Z,18.12
2019-01-16T12:03:17.119Z,16.45
2019-01-16T12:06:03.886Z,16.10
2019-01-16T12:08:56.498Z,17.73
2019-01-16T12:11:34.426Z,17.93
2019-01-16T12:14:25.440Z,18.70
2019-01-16T12:17:22.712Z,15.40
2019-01-16T12:20:09.311Z,17.20
2019-01-16T12:22:50.889Z,16.85
2019-01-16T12:25:48.036Z,16.90
2019-01-16T12:28:36.026Z,15.03
2019-01-16T12:31:10.582Z,15.85
2019-01-16T12:34:03.950Z,16.25
2019-01-16T12:37:07.368Z,15.68
2019-01-16T12:42:36.272Z,17.67
2019-01-16T12:45:30.602Z,15.08
2019-01-16T12:48:24.683Z,18.52
2019-01-16T12:51:11.528Z,14.38
2019-01-16T12:53:58.156Z,16.45
2019-01-16T12:56:41.897Z,19.25
2019-01-16T12:59:32.389Z,15.20
2019-01-16T13:02:11.478Z,17.37
2019-01-16T13:05:17.574Z,16.95
2019-01-16T13:08:08.388Z,16.87
2019-01-16T13:10:59.459Z,15.25
2019-01-16T13:13:59.432Z,15.63
2019-01-16T13:16:45.909Z,12.37
2019-01-16T13:19:32.736Z,19.67
2019-01-16T13:22:23.964Z,15.25
2019-01-16T13:25:20.847Z,15.78
2019-01-16T13:28:06.533Z,15.45
2019-01-16T13:31:02.603Z,20.62
2019-01-16T13:33:56.777Z,16.62
2019-01-16T13:36:47.696Z,16.80
2019-01-16T13:39:33.780Z,20.05
2019-01-16T13:42:25.369Z,20.32
2019-01-16T13:45:23.243Z,24.67
2019-01-16T13:48:24.400Z,17.85
2019-01-16T13:51:05.140Z,20.08
2019-01-16T13:53:57.727Z,18.62
2019-01-16T13:56:43.299Z,16.50
2019-01-16T13:59:34.132Z,14.47
2019-01-16T14:02:28.411Z,15.03
2019-01-16T14:05:12.843Z,16.82
2019-01-16T14:08:09.771Z,16.82
2019-01-16T14:10:55.859Z,16.80
2019-01-16T14:13:42.565Z,18.98
2019-01-16T14:16:33.790Z,19.70
2019-01-16T14:19:21.919Z,18.05
2019-01-16T14:22:08.772Z,23.67
2019-01-16T14:25:05.969Z,18.40
2019-01-16T14:27:53.990Z,19.30
2019-01-16T14:30:37.080Z,13.90
2019-01-16T14:36:02.694Z,18.20
2019-01-16T14:39:06.016Z,19.05
2019-01-16T14:41:45.143Z,20.50
2019-01-16T14:44:26.787Z,15.00
2019-01-16T14:58:57.369Z,12.15
2019-01-16T15:01:45.547Z,12.93
2019-01-16T15:04:33.658Z,12.73
2019-01-16T15:07:12.555Z,12.55
2019-01-16T15:10:12.692Z,11.95
2019-01-16T15:12:51.851Z,18.07
2019-01-16T15:15:37.607Z,17.07
2019-01-16T15:18:24.253Z,20.00
2019-01-16T15:21:21.218Z,14.40
2019-01-16T15:24:08.022Z,17.95
2019-01-16T15:26:59.247Z,18.62
2019-01-16T15:29:53.293Z,19.12
2019-01-16T15:32:46.830Z,17.80
2019-01-16T15:35:34.721Z,16.07
2019-01-16T15:38:18.112Z,17.95
2019-01-16T15:41:10.059Z,16.07
2019-01-16T15:44:01.351Z,14.43
2019-01-16T15:46:42.733Z,17.20
2019-01-16T15:49:46.054Z,20.45
2019-01-16T15:55:21.832Z,18.73
2019-01-16T15:58:18.138Z,15.50
2019-01-16T16:01:02.859Z,16.23
2019-01-16T16:04:09.306Z,12.23
2019-01-16T16:06:57.458Z,20.02
2019-01-16T16:09:57.645Z,14.13
2019-01-16T16:12:51.622Z,17.05
2019-01-16T16:15:38.118Z,12.17
2019-01-16T16:18:34.552Z,15.83
2019-01-16T16:21:21.448Z,15.08
2019-01-16T16:24:07.639Z,14.00
2019-01-16T16:27:04.962Z,16.12
2019-01-16T16:29:58.974Z,12.80
2019-01-16T16:32:53.251Z,17.40
2019-01-16T16:35:51.537Z,14.13
2019-01-16T16:38:45.921Z,12.68
2019-01-16T16:41:29.181Z,13.70
2019-01-16T16:44:21.982Z,17.35
2019-01-16T16:47:28.615Z,16.75
2019-01-16T16:50:30.625Z,16.62
2019-01-16T16:53:31.389Z,17.37
2019-01-16T16:56:13.394Z,16.70
2019-01-16T16:59:07.405Z,17.77
2019-01-16T17:01:54.106Z,18.30
2019-01-16T17:04:45.099Z,16.80
2019-01-16T17:07:33.861Z,16.75
2019-01-16T17:10:32.181Z,14.03
2019-01-16T17:13:16.128Z,17.20
2019-01-16T17:16:02.643Z,21.97
2019-01-16T17:18:52.096Z,24.37
2019-01-16T17:21:38.504Z,17.17
2019-01-16T17:24:17.984Z,18.52
2019-01-16T17:27:09.260Z,19.10
2019-01-16T17:30:05.837Z,18.30
2019-01-16T17:32:53.953Z,14.95
2019-01-16T17:35:48.041Z,20.63
2019-01-16T17:38:24.392Z,18.20
2019-01-16T17:41:22.391Z,16.90
2019-01-16T17:44:09.493Z,19.80
2019-01-16T17:46:56.050Z,19.85
2019-01-16T17:49:53.397Z,17.55
2019-01-16T17:52:47.382Z,17.00
2019-01-16T17:55:35.393Z,20.03
2019-01-16T17:58:21.654Z,16.90
2019-01-16T18:01:08.450Z,20.70
2019-01-16T18:03:48.223Z,17.77
2019-01-16T18:06:36.306Z,18.87
2019-01-16T18:09:28.648Z,15.83
2019-01-16T18:12:29.066Z,21.90
2019-01-16T18:15:19.988Z,24.50
2019-01-16T18:18:11.005Z,19.23
2019-01-16T18:21:17.245Z,18.05
2019-01-16T18:24:03.902Z,16.45
2019-01-16T18:26:44.878Z,20.10
2019-01-16T18:29:31.591Z,16.70
2019-01-16T18:32:19.728Z,21.90
2019-01-16T18:35:10.723Z,18.70
2019-01-16T18:37:57.599Z,19.35
2019-01-16T18:40:57.851Z,20.32
2019-01-16T18:47:02.825Z,17.32
2019-01-16T18:49:51.063Z,23.83
2019-01-16T18:52:51.746Z,20.70
2019-01-16T18:55:44.379Z,16.20
2019-01-16T18:58:22.989Z,16.60
2019-01-16T19:01:08.640Z,16.65
2019-01-16T19:03:47.684Z,15.40
2019-01-16T19:06:35.905Z,17.57
2019-01-16T19:09:29.812Z,19.70
2019-01-16T19:12:17.995Z,14.58
2019-01-16T19:15:08.934Z,18.90
2019-01-16T19:17:55.611Z,14.05
2019-01-16T19:20:49.654Z,17.43
2019-01-16T19:23:49.699Z,16.45
2019-01-16T19:26:46.995Z,16.12
2019-01-16T19:29:30.998Z,15.53
2019-01-16T19:32:17.936Z,20.55
2019-01-16T19:35:05.475Z,18.30
2019-01-16T19:37:50.316Z,22.17
2019-01-16T19:40:37.201Z,23.60
2019-01-16T19:43:32.431Z,27.90
2019-01-16T19:46:35.938Z,20.35
2019-01-16T19:49:30.035Z,23.60
2019-01-16T19:52:16.636Z,24.47
2019-01-16T19:55:03.299Z,19.30
2019-01-16T19:57:51.398Z,19.82
2019-01-16T20:00:38.290Z,26.47
2019-01-16T20:03:32.431Z,17.77
2019-01-16T20:06:16.780Z,19.45
2019-01-16T20:09:18.104Z,20.25
2019-01-16T20:12:15.501Z,20.92
2019-01-16T20:15:02.246Z,22.87
2019-01-16T20:17:53.426Z,22.48
2019-01-16T20:20:36.423Z,20.30
2019-01-16T20:23:24.495Z,23.22
2019-01-16T20:26:12.521Z,23.73
2019-01-16T20:29:06.604Z,22.70
2019-01-16T20:31:57.407Z,23.80
2019-01-16T20:34:43.193Z,19.70
2019-01-16T20:37:40.324Z,21.87
2019-01-16T20:40:28.202Z,19.02
2019-01-16T20:43:10.682Z,15.88
2019-01-16T20:45:58.736Z,19.52
2019-01-16T20:48:52.066Z,18.48
2019-01-16T20:51:43.059Z,21.48
2019-01-16T20:54:28.179Z,23.02
2019-01-16T20:57:12.237Z,20.40
2019-01-16T21:00:12.355Z,21.42
2019-01-16T21:03:03.239Z,26.60
2019-01-16T21:06:03.561Z,25.83
2019-01-16T21:08:54.685Z,22.15
2019-01-16T21:11:41.310Z,19.02
2019-01-16T21:14:24.016Z,24.45
2019-01-16T21:17:10.919Z,22.60
2019-01-16T21:20:00.298Z,22.00
2019-01-16T21:22:42.558Z,23.05
2019-01-16T21:25:42.579Z,19.20
2019-01-16T21:28:30.614Z,24.35
2019-01-16T21:31:18.627Z,22.17
2019-01-16T21:34:05.144Z,25.60
2019-01-16T21:36:51.616Z,28.07
2019-01-16T21:39:45.671Z,24.12
2019-01-16T21:42:43.829Z,27.73
2019-01-16T21:45:31.845Z,30.53
2019-01-16T21:48:28.805Z,28.40
2019-01-16T21:51:26.071Z,27.77
2019-01-16T21:54:20.427Z,19.45
2019-01-16T21:57:03.719Z,33.05
2019-01-16T21:59:54.542Z,24.50
2019-01-16T22:02:48.507Z,23.05
2019-01-16T22:05:39.207Z,21.40
2019-01-16T22:08:42.327Z,23.85
2019-01-16T22:11:33.422Z,24.07
2019-01-16T22:14:25.803Z,24.60
2019-01-16T22:17:17.654Z,17.13
2019-01-16T22:20:11.864Z,23.62
2019-01-16T22:22:58.831Z,22.93
2019-01-16T22:25:42.068Z,23.12
2019-01-16T22:28:32.078Z,19.32
2019-01-16T22:31:11.109Z,26.20
2019-01-16T22:34:05.198Z,24.47
2019-01-16T22:36:49.022Z,21.85
2019-01-16T22:39:45.382Z,26.87
2019-01-16T22:42:22.939Z,17.95
2019-01-16T22:45:20.105Z,22.10
2019-01-16T22:48:10.866Z,21.12
2019-01-16T22:51:14.017Z,26.68
2019-01-16T22:54:17.423Z,22.77
2019-01-16T22:56:56.561Z,22.40
2019-01-16T22:59:43.513Z,21.70
2019-01-16T23:02:25.090Z,28.15
2019-01-16T23:05:13.088Z,25.32
2019-01-16T23:08:13.081Z,22.85
2019-01-16T23:11:08.390Z,25.17
2019-01-16T23:13:55.450Z,25.00
2019-01-16T23:16:39.167Z,26.42
2019-01-16T23:19:30.146Z,25.65
2019-01-16T23:22:16.862Z,26.37
2019-01-16T23:25:07.887Z,23.90
2019-01-16T23:28:07.371Z,23.07
2019-01-16T23:30:43.339Z,28.35
2019-01-16T23:33:30.060Z,26.82
2019-01-16T23:36:12.789Z,25.97
2019-01-16T23:38:51.972Z,22.98
2019-01-16T23:41:40.003Z,27.25
2019-01-16T23:44:28.043Z,23.40
2019-01-16T23:47:14.996Z,23.57
2019-01-16T23:50:01.681Z,25.40
2019-01-16T23:52:55.567Z,24.00
2019-01-16T23:55:46.610Z,23.93
2019-01-16T23:58:37.628Z,24.40
